createdAt,value
2023-03-05T00:02:00.265Z,23.33
2023-03-05T00:07:05.985Z,22.08
2023-03-05T00:12:08.786Z,21.65
2023-03-05T00:17:11.454Z,30.20
2023-03-05T00:22:13.944Z,27.23
2023-03-05T00:27:16.319Z,18.23
2023-03-05T00:32:18.646Z,26.83
2023-03-05T00:37:21.035Z,22.23
2023-03-05T00:42:23.672Z,23.37
2023-03-05T00:47:26.258Z,25.95
2023-03-05T00:52:29.290Z,19.50
2023-03-05T00:57:32.176Z,29.42
2023-03-05T01:02:35.463Z,28.45
2023-03-05T01:07:37.968Z,30.83
2023-03-05T01:12:40.424Z,30.67
2023-03-05T01:17:43.052Z,24.75
2023-03-05T01:22:45.571Z,21.65
2023-03-05T01:27:48.167Z,26.80
2023-03-05T01:32:51.800Z,29.23
2023-03-05T01:37:55.312Z,30.40
2023-03-05T01:43:02.118Z,30.63
2023-03-05T01:48:05.274Z,25.88
2023-03-05T01:53:08.064Z,29.83
2023-03-05T01:58:13.799Z,33.40
2023-03-05T02:03:16.758Z,33.33
2023-03-05T02:08:22.482Z,30.45
2023-03-05T02:13:28.452Z,37.17
2023-03-05T02:18:30.957Z,32.90
2023-03-05T02:23:39.013Z,33.57
2023-03-05T02:28:57.291Z,28.60
2023-03-05T02:33:59.834Z,39.92
2023-03-05T02:39:02.909Z,31.98
2023-03-05T02:44:05.792Z,30.63
2023-03-05T02:49:08.393Z,34.20
2023-03-05T02:54:11.039Z,36.08
2023-03-05T02:59:13.573Z,33.63
2023-03-05T03:04:16.398Z,32.38
2023-03-05T03:09:18.893Z,33.80
2023-03-05T03:14:21.490Z,32.53
2023-03-05T03:19:23.857Z,26.73
2023-03-05T03:24:26.523Z,30.63
2023-03-05T03:29:32.097Z,26.52
2023-03-05T03:34:34.638Z,30.00
2023-03-05T03:39:39.708Z,23.33
2023-03-05T03:44:42.132Z,34.35
2023-03-05T03:49:44.658Z,28.33
2023-03-05T03:54:50.754Z,28.38
2023-03-05T03:59:53.240Z,29.35
2023-03-05T04:04:55.801Z,26.83
2023-03-05T04:09:58.520Z,27.15
2023-03-05T04:15:01.061Z,23.60
2023-03-05T04:20:09.405Z,26.02
2023-03-05T04:25:12.386Z,26.45
2023-03-05T04:30:15.171Z,27.70
2023-03-05T04:35:17.897Z,25.05
2023-03-05T04:40:20.996Z,27.60
2023-03-05T04:45:23.447Z,25.80
2023-03-05T04:50:26.045Z,25.48
2023-03-05T04:55:28.569Z,26.10
2023-03-05T05:00:31.079Z,24.15
2023-03-05T05:05:33.630Z,29.15
2023-03-05T05:10:38.882Z,24.88
2023-03-05T05:15:41.473Z,21.70
2023-03-05T05:20:44.020Z,23.23
2023-03-05T05:25:46.448Z,22.77
2023-03-05T05:30:48.899Z,18.70
2023-03-05T05:35:51.769Z,22.48
2023-03-05T05:40:54.274Z,18.10
2023-03-05T05:46:03.735Z,18.37
2023-03-05T05:51:12.549Z,21.20
2023-03-05T05:56:16.933Z,17.48
2023-03-05T06:01:45.748Z,16.00
2023-03-05T06:06:48.360Z,19.40
2023-03-05T06:11:50.967Z,18.80
2023-03-05T06:16:53.551Z,15.25
2023-03-05T06:21:56.958Z,13.00
2023-03-05T06:26:59.425Z,14.77
2023-03-05T06:32:02.171Z,16.65
2023-03-05T06:37:23.174Z,13.17
2023-03-05T06:42:25.695Z,12.90
2023-03-05T06:47:28.248Z,14.13
2023-03-05T06:52:31.741Z,17.15
2023-03-05T06:57:34.504Z,15.02
2023-03-05T07:02:38.342Z,17.27
2023-03-05T07:07:40.930Z,14.05
2023-03-05T07:12:43.693Z,15.20
2023-03-05T07:17:46.178Z,12.57
2023-03-05T07:22:48.852Z,18.83
2023-03-05T07:27:53.918Z,16.43
2023-03-05T07:32:56.460Z,12.70
2023-03-05T07:37:59.082Z,17.58
2023-03-05T07:43:01.602Z,13.03
2023-03-05T07:48:12.614Z,12.50
2023-03-05T07:53:16.104Z,17.67
2023-03-05T07:58:19.004Z,15.98
2023-03-05T08:03:21.887Z,15.35
2023-03-05T08:08:24.428Z,19.40
2023-03-05T08:13:27.035Z,17.42
2023-03-05T08:18:29.574Z,16.80
2023-03-05T08:23:32.329Z,20.30
2023-03-05T08:28:34.718Z,20.65
2023-03-05T08:33:37.726Z,18.27
2023-03-05T08:38:40.710Z,21.27
2023-03-05T08:43:44.301Z,19.00
2023-03-05T08:48:46.845Z,21.85
2023-03-05T08:53:49.345Z,14.38
2023-03-05T08:58:53.233Z,21.97
2023-03-05T09:03:55.817Z,17.42
2023-03-05T09:08:58.543Z,17.37
2023-03-05T09:14:01.101Z,17.02
2023-03-05T09:19:03.704Z,22.48
2023-03-05T09:24:06.652Z,16.60
2023-03-05T09:29:10.018Z,20.17
2023-03-05T09:34:14.951Z,20.23
2023-03-05T09:39:17.473Z,18.13
2023-03-05T09:44:52.222Z,17.48
2023-03-05T09:50:36.474Z,18.27
2023-03-05T09:55:43.204Z,15.07
2023-03-05T10:00:49.976Z,19.00
2023-03-05T10:06:06.308Z,17.75
2023-03-05T10:11:43.334Z,14.23
2023-03-05T10:17:11.517Z,12.53
2023-03-05T10:22:26.267Z,16.48
2023-03-05T10:27:48.178Z,19.77
2023-03-05T10:32:58.555Z,14.00
2023-03-05T10:38:10.287Z,19.15
2023-03-05T10:43:24.862Z,20.83
2023-03-05T10:48:59.506Z,17.30
2023-03-05T10:54:25.595Z,18.87
2023-03-05T10:59:28.832Z,16.77
2023-03-05T11:04:37.084Z,17.38
2023-03-05T11:09:40.171Z,17.97
2023-03-05T11:14:46.572Z,16.25
2023-03-05T11:19:52.292Z,16.60
2023-03-05T11:25:16.531Z,14.73
2023-03-05T11:30:25.807Z,13.90
2023-03-05T11:35:37.073Z,14.47
2023-03-05T11:40:39.804Z,21.70
2023-03-05T11:45:43.876Z,18.70
2023-03-05T11:50:53.338Z,17.83
2023-03-05T11:56:13.104Z,21.10
2023-03-05T12:01:19.318Z,13.23
2023-03-05T12:06:46.104Z,17.48
2023-03-05T12:11:56.732Z,16.83
2023-03-05T12:17:07.071Z,15.65
2023-03-05T12:22:19.553Z,17.75
2023-03-05T12:27:37.069Z,16.98
2023-03-05T12:32:45.470Z,18.58
2023-03-05T12:37:51.104Z,16.47
2023-03-05T12:42:58.766Z,19.98
2023-03-05T12:48:01.230Z,21.58
2023-03-05T12:53:15.549Z,19.40
2023-03-05T12:58:52.983Z,19.02
2023-03-05T13:03:58.726Z,18.37
2023-03-05T13:09:19.343Z,24.08
2023-03-05T13:14:33.676Z,16.90
2023-03-05T13:19:36.418Z,23.45
2023-03-05T13:24:41.337Z,20.40
2023-03-05T13:29:52.716Z,21.27
2023-03-05T13:35:12.855Z,21.52
2023-03-05T13:40:26.651Z,24.27
2023-03-05T13:45:31.719Z,22.80
2023-03-05T13:50:37.266Z,23.63
2023-03-05T13:55:39.823Z,22.00
2023-03-05T14:00:42.913Z,21.48
2023-03-05T14:05:45.880Z,23.35
2023-03-05T14:10:49.278Z,26.48
2023-03-05T14:16:09.455Z,25.33
2023-03-05T14:21:12.962Z,22.97
2023-03-05T14:26:29.225Z,27.92
2023-03-05T14:31:45.460Z,23.23
2023-03-05T14:36:53.565Z,25.58
2023-03-05T14:41:56.266Z,24.65
2023-03-05T14:46:59.068Z,24.97
2023-03-05T14:52:01.681Z,23.75
2023-03-05T14:57:05.580Z,26.65
2023-03-05T15:02:20.868Z,24.55
2023-03-05T15:07:29.358Z,24.90
2023-03-05T15:12:32.194Z,31.80
2023-03-05T15:17:42.726Z,23.05
2023-03-05T15:22:45.403Z,21.88
2023-03-05T15:27:48.235Z,25.55
2023-03-05T15:32:52.062Z,26.17
2023-03-05T15:37:54.862Z,25.90
2023-03-05T15:42:59.254Z,27.05
2023-03-05T15:48:01.992Z,24.88
2023-03-05T15:53:10.613Z,23.13
2023-03-05T15:58:17.742Z,29.05
2023-03-05T16:03:20.361Z,25.33
2023-03-05T16:08:22.895Z,24.80
2023-03-05T16:13:28.550Z,26.20
2023-03-05T16:18:34.205Z,26.20
2023-03-05T16:23:36.754Z,28.33
2023-03-05T16:28:39.252Z,27.57
2023-03-05T16:33:41.817Z,28.55
2023-03-05T16:38:44.343Z,26.42
2023-03-05T16:43:47.566Z,26.70
2023-03-05T16:48:50.142Z,30.55
2023-03-05T16:53:53.579Z,29.60
2023-03-05T16:58:57.172Z,24.52
2023-03-05T17:04:00.607Z,27.60
2023-03-05T17:09:04.335Z,28.50
2023-03-05T17:14:06.854Z,27.95
2023-03-05T17:19:09.520Z,28.63
2023-03-05T17:24:12.442Z,27.52
2023-03-05T17:29:15.247Z,32.20
2023-03-05T17:34:27.797Z,30.02
2023-03-05T17:39:37.931Z,28.02
2023-03-05T17:44:40.563Z,28.23
2023-03-05T17:49:43.213Z,30.20
2023-03-05T17:54:45.734Z,25.08
2023-03-05T17:59:49.450Z,26.90
2023-03-05T18:04:52.562Z,26.60
2023-03-05T18:09:55.094Z,29.73
2023-03-05T18:14:57.645Z,27.00
2023-03-05T18:20:02.855Z,25.73
2023-03-05T18:25:06.777Z,27.00
2023-03-05T18:30:10.019Z,26.98
2023-03-05T18:35:14.298Z,25.07
2023-03-05T18:40:20.273Z,25.92
2023-03-05T18:45:23.803Z,22.38
2023-03-05T18:50:28.533Z,23.60
2023-03-05T18:55:31.255Z,22.77
2023-03-05T19:00:33.851Z,27.20
2023-03-05T19:05:36.521Z,22.98
2023-03-05T19:10:39.232Z,22.38
2023-03-05T19:15:42.496Z,22.10
2023-03-05T19:20:45.078Z,20.30
2023-03-05T19:25:47.629Z,22.13
2023-03-05T19:30:50.406Z,24.13
2023-03-05T19:35:53.009Z,22.48
2023-03-05T19:40:55.650Z,22.73
2023-03-05T19:46:06.907Z,25.45
2023-03-05T19:51:15.119Z,23.73
2023-03-05T19:56:17.858Z,24.75
2023-03-05T20:01:26.259Z,20.30
2023-03-05T20:06:30.123Z,20.60
2023-03-05T20:11:33.350Z,23.30
2023-03-05T20:16:37.844Z,22.63
2023-03-05T20:21:41.497Z,21.48
2023-03-05T20:26:45.706Z,21.40
2023-03-05T20:31:50.212Z,24.77
2023-03-05T20:36:52.650Z,29.85
2023-03-05T20:42:01.130Z,24.03
2023-03-05T20:47:24.063Z,24.92
2023-03-05T20:52:28.767Z,25.70
2023-03-05T20:57:31.834Z,24.00
2023-03-05T21:02:37.676Z,26.73
2023-03-05T21:07:40.668Z,29.17
2023-03-05T21:12:44.428Z,26.70
2023-03-05T21:17:49.505Z,25.42
2023-03-05T21:22:55.482Z,27.20
2023-03-05T21:28:04.717Z,25.30
2023-03-05T21:33:10.426Z,28.03
2023-03-05T21:38:14.445Z,24.15
2023-03-05T21:43:19.074Z,24.67
2023-03-05T21:48:22.449Z,26.08
2023-03-05T21:53:25.604Z,27.00
2023-03-05T21:58:28.086Z,25.60
2023-03-05T22:03:31.042Z,26.77
2023-03-05T22:08:33.576Z,26.85
2023-03-05T22:13:37.156Z,24.15
2023-03-05T22:18:39.648Z,26.80
2023-03-05T22:23:42.151Z,23.93
2023-03-05T22:28:44.864Z,23.42
2023-03-05T22:33:47.282Z,24.88
2023-03-05T22:38:51.691Z,24.67
2023-03-05T22:43:54.211Z,26.50
2023-03-05T22:48:56.942Z,24.33
2023-03-05T22:53:59.440Z,25.73
2023-03-05T22:59:02.012Z,28.23
2023-03-05T23:04:29.249Z,27.27
2023-03-05T23:09:31.861Z,28.05
2023-03-05T23:14:34.316Z,27.53
2023-03-05T23:19:39.806Z,28.60
2023-03-05T23:24:42.442Z,27.23
2023-03-05T23:29:59.092Z,25.52
2023-03-05T23:35:01.584Z,27.80
2023-03-05T23:40:07.390Z,29.57
2023-03-05T23:45:13.007Z,29.92
2023-03-05T23:50:24.600Z,24.60
2023-03-05T23:55:36.029Z,27.05
